sensor_id;sensor_type;location;lat;lon;timestamp;P1;durP1;ratioP1;P2;durP2;ratioP2
84025;SDS011;74110;45.660;25.582;2024-03-02T00:01:50;2.80;;;1.70;;
84025;SDS011;74110;45.660;25.582;2024-03-02T00:04:20;3.00;;;1.40;;
84025;SDS011;74110;45.660;25.582;2024-03-02T00:06:47;6.70;;;1.80;;
84025;SDS011;74110;45.660;25.582;2024-03-02T00:09:18;3.50;;;1.40;;
84025;SDS011;74110;45.660;25.582;2024-03-02T00:11:46;4.70;;;2.10;;
84025;SDS011;74110;45.660;25.582;2024-03-02T00:14:15;4.80;;;2.00;;
84025;SDS011;74110;45.660;25.582;2024-03-02T00:16:43;5.00;;;2.00;;
84025;SDS011;74110;45.660;25.582;2024-03-02T00:19:11;4.20;;;1.70;;
84025;SDS011;74110;45.660;25.582;2024-03-02T00:21:41;3.90;;;1.30;;
84025;SDS011;74110;45.660;25.582;2024-03-02T00:24:31;5.50;;;1.70;;
84025;SDS011;74110;45.660;25.582;2024-03-02T00:27:01;3.40;;;1.90;;
84025;SDS011;74110;45.660;25.582;2024-03-02T00:29:34;3.30;;;1.50;;
84025;SDS011;74110;45.660;25.582;2024-03-02T00:32:02;6.30;;;1.60;;
84025;SDS011;74110;45.660;25.582;2024-03-02T00:34:33;3.30;;;1.50;;
84025;SDS011;74110;45.660;25.582;2024-03-02T00:37:01;3.50;;;1.40;;
84025;SDS011;74110;45.660;25.582;2024-03-02T00:39:30;4.10;;;1.60;;
84025;SDS011;74110;45.660;25.582;2024-03-02T00:41:57;4.50;;;1.70;;
84025;SDS011;74110;45.660;25.582;2024-03-02T00:44:25;4.50;;;1.30;;
84025;SDS011;74110;45.660;25.582;2024-03-02T00:49:23;3.20;;;1.40;;
84025;SDS011;74110;45.660;25.582;2024-03-02T00:51:54;5.90;;;1.60;;
84025;SDS011;74110;45.660;25.582;2024-03-02T00:54:22;4.50;;;1.80;;
84025;SDS011;74110;45.660;25.582;2024-03-02T00:56:54;2.30;;;1.50;;
84025;SDS011;74110;45.660;25.582;2024-03-02T00:59:25;3.50;;;1.60;;
84025;SDS011;74110;45.660;25.582;2024-03-02T01:01:54;6.20;;;1.80;;
84025;SDS011;74110;45.660;25.582;2024-03-02T01:04:21;4.60;;;1.90;;
84025;SDS011;74110;45.660;25.582;2024-03-02T01:09:18;3.20;;;1.50;;
84025;SDS011;74110;45.660;25.582;2024-03-02T01:11:46;5.60;;;1.70;;
84025;SDS011;74110;45.660;25.582;2024-03-02T01:14:14;4.80;;;1.30;;
84025;SDS011;74110;45.660;25.582;2024-03-02T01:16:42;3.90;;;1.50;;
84025;SDS011;74110;45.660;25.582;2024-03-02T01:19:09;3.70;;;1.70;;
84025;SDS011;74110;45.660;25.582;2024-03-02T01:21:40;3.30;;;1.50;;
84025;SDS011;74110;45.660;25.582;2024-03-02T01:24:08;3.50;;;1.50;;
84025;SDS011;74110;45.660;25.582;2024-03-02T01:26:36;4.90;;;1.60;;
84025;SDS011;74110;45.660;25.582;2024-03-02T01:31:33;3.10;;;1.60;;
84025;SDS011;74110;45.660;25.582;2024-03-02T01:34:01;4.30;;;1.80;;
84025;SDS011;74110;45.660;25.582;2024-03-02T01:36:29;4.10;;;1.80;;
84025;SDS011;74110;45.660;25.582;2024-03-02T01:38:59;4.40;;;1.70;;
84025;SDS011;74110;45.660;25.582;2024-03-02T01:41:28;4.50;;;1.60;;
84025;SDS011;74110;45.660;25.582;2024-03-02T01:43:56;4.50;;;1.90;;
84025;SDS011;74110;45.660;25.582;2024-03-02T01:46:24;4.40;;;1.80;;
84025;SDS011;74110;45.660;25.582;2024-03-02T01:48:52;3.30;;;1.90;;
84025;SDS011;74110;45.660;25.582;2024-03-02T01:51:20;2.40;;;1.30;;
84025;SDS011;74110;45.660;25.582;2024-03-02T01:53:48;2.40;;;1.20;;
84025;SDS011;74110;45.660;25.582;2024-03-02T01:56:15;3.40;;;1.70;;
84025;SDS011;74110;45.660;25.582;2024-03-02T01:58:44;4.90;;;1.90;;
84025;SDS011;74110;45.660;25.582;2024-03-02T02:01:14;3.00;;;1.30;;
84025;SDS011;74110;45.660;25.582;2024-03-02T02:03:44;4.30;;;1.90;;
84025;SDS011;74110;45.660;25.582;2024-03-02T02:06:11;6.20;;;1.80;;
84025;SDS011;74110;45.660;25.582;2024-03-02T02:08:39;4.00;;;1.50;;
84025;SDS011;74110;45.660;25.582;2024-03-02T02:13:35;4.50;;;1.60;;
84025;SDS011;74110;45.660;25.582;2024-03-02T02:16:07;3.10;;;1.40;;
84025;SDS011;74110;45.660;25.582;2024-03-02T02:18:37;4.30;;;1.90;;
84025;SDS011;74110;45.660;25.582;2024-03-02T02:21:06;3.80;;;2.10;;
84025;SDS011;74110;45.660;25.582;2024-03-02T02:23:36;4.40;;;2.20;;
84025;SDS011;74110;45.660;25.582;2024-03-02T02:26:03;5.60;;;2.00;;
84025;SDS011;74110;45.660;25.582;2024-03-02T02:28:36;8.10;;;2.40;;
84025;SDS011;74110;45.660;25.582;2024-03-02T02:31:05;6.20;;;2.30;;
84025;SDS011;74110;45.660;25.582;2024-03-02T02:33:32;3.80;;;2.50;;
84025;SDS011;74110;45.660;25.582;2024-03-02T02:36:01;3.80;;;2.10;;
84025;SDS011;74110;45.660;25.582;2024-03-02T02:38:28;6.30;;;2.50;;
84025;SDS011;74110;45.660;25.582;2024-03-02T02:40:57;5.30;;;2.20;;
84025;SDS011;74110;45.660;25.582;2024-03-02T02:43:24;6.60;;;3.00;;
84025;SDS011;74110;45.660;25.582;2024-03-02T02:45:52;6.40;;;2.40;;
84025;SDS011;74110;45.660;25.582;2024-03-02T02:48:21;4.50;;;2.50;;
84025;SDS011;74110;45.660;25.582;2024-03-02T02:50:49;3.30;;;2.00;;
84025;SDS011;74110;45.660;25.582;2024-03-02T02:53:17;5.20;;;2.50;;
84025;SDS011;74110;45.660;25.582;2024-03-02T02:55:46;4.70;;;2.20;;
84025;SDS011;74110;45.660;25.582;2024-03-02T02:58:15;5.30;;;2.40;;
84025;SDS011;74110;45.660;25.582;2024-03-02T03:03:11;4.40;;;1.90;;
84025;SDS011;74110;45.660;25.582;2024-03-02T03:08:09;4.50;;;2.20;;
84025;SDS011;74110;45.660;25.582;2024-03-02T03:10:36;5.80;;;2.70;;
84025;SDS011;74110;45.660;25.582;2024-03-02T03:13:05;8.30;;;2.70;;
84025;SDS011;74110;45.660;25.582;2024-03-02T03:15:35;4.70;;;2.50;;
84025;SDS011;74110;45.660;25.582;2024-03-02T03:18:04;3.80;;;2.50;;
84025;SDS011;74110;45.660;25.582;2024-03-02T03:20:32;5.60;;;2.40;;
84025;SDS011;74110;45.660;25.582;2024-03-02T03:23:02;5.20;;;2.30;;
84025;SDS011;74110;45.660;25.582;2024-03-02T03:25:31;9.50;;;2.70;;
84025;SDS011;74110;45.660;25.582;2024-03-02T03:27:59;4.40;;;2.40;;
84025;SDS011;74110;45.660;25.582;2024-03-02T03:30:28;5.40;;;2.60;;
84025;SDS011;74110;45.660;25.582;2024-03-02T03:32:57;5.00;;;2.30;;
84025;SDS011;74110;45.660;25.582;2024-03-02T03:35:25;8.20;;;2.40;;
84025;SDS011;74110;45.660;25.582;2024-03-02T03:37:53;5.70;;;2.50;;
84025;SDS011;74110;45.660;25.582;2024-03-02T03:40:20;5.50;;;2.40;;
84025;SDS011;74110;45.660;25.582;2024-03-02T03:42:48;5.80;;;2.70;;
84025;SDS011;74110;45.660;25.582;2024-03-02T03:45:18;8.20;;;2.80;;
84025;SDS011;74110;45.660;25.582;2024-03-02T03:47:51;4.80;;;2.30;;
84025;SDS011;74110;45.660;25.582;2024-03-02T03:50:19;4.00;;;2.30;;
84025;SDS011;74110;45.660;25.582;2024-03-02T03:52:48;9.00;;;2.50;;
84025;SDS011;74110;45.660;25.582;2024-03-02T03:55:17;6.30;;;2.60;;
84025;SDS011;74110;45.660;25.582;2024-03-02T04:00:13;5.70;;;2.50;;
84025;SDS011;74110;45.660;25.582;2024-03-02T04:05:10;4.40;;;1.70;;
84025;SDS011;74110;45.660;25.582;2024-03-02T04:07:38;6.90;;;2.40;;
84025;SDS011;74110;45.660;25.582;2024-03-02T04:10:26;3.80;;;1.70;;
84025;SDS011;74110;45.660;25.582;2024-03-02T04:12:53;3.80;;;1.80;;
84025;SDS011;74110;45.660;25.582;2024-03-02T04:15:22;5.60;;;2.50;;
84025;SDS011;74110;45.660;25.582;2024-03-02T04:17:50;4.30;;;2.60;;
84025;SDS011;74110;45.660;25.582;2024-03-02T04:20:19;5.30;;;2.10;;
84025;SDS011;74110;45.660;25.582;2024-03-02T04:22:47;7.40;;;2.60;;
84025;SDS011;74110;45.660;25.582;2024-03-02T04:25:15;5.90;;;2.60;;
84025;SDS011;74110;45.660;25.582;2024-03-02T04:27:42;8.70;;;3.70;;
84025;SDS011;74110;45.660;25.582;2024-03-02T04:30:10;5.30;;;2.30;;
84025;SDS011;74110;45.660;25.582;2024-03-02T04:32:39;3.50;;;1.90;;
84025;SDS011;74110;45.660;25.582;2024-03-02T04:35:10;4.90;;;2.30;;
84025;SDS011;74110;45.660;25.582;2024-03-02T04:37:38;4.70;;;2.10;;
84025;SDS011;74110;45.660;25.582;2024-03-02T04:40:06;6.00;;;2.40;;
84025;SDS011;74110;45.660;25.582;2024-03-02T04:42:38;5.90;;;3.10;;
84025;SDS011;74110;45.660;25.582;2024-03-02T04:45:08;6.20;;;2.80;;
84025;SDS011;74110;45.660;25.582;2024-03-02T04:47:37;5.90;;;2.70;;
84025;SDS011;74110;45.660;25.582;2024-03-02T04:50:06;9.00;;;2.90;;
84025;SDS011;74110;45.660;25.582;2024-03-02T04:52:37;8.10;;;3.20;;
84025;SDS011;74110;45.660;25.582;2024-03-02T04:55:07;5.20;;;2.40;;
84025;SDS011;74110;45.660;25.582;2024-03-02T04:58:02;7.70;;;2.90;;
84025;SDS011;74110;45.660;25.582;2024-03-02T05:00:31;5.20;;;2.60;;
84025;SDS011;74110;45.660;25.582;2024-03-02T05:03:00;5.30;;;2.60;;
84025;SDS011;74110;45.660;25.582;2024-03-02T05:05:28;8.10;;;2.30;;
84025;SDS011;74110;45.660;25.582;2024-03-02T05:07:56;8.60;;;2.70;;
84025;SDS011;74110;45.660;25.582;2024-03-02T05:10:25;6.70;;;2.30;;
84025;SDS011;74110;45.660;25.582;2024-03-02T05:12:54;7.50;;;2.70;;
84025;SDS011;74110;45.660;25.582;2024-03-02T05:15:28;6.70;;;2.70;;
84025;SDS011;74110;45.660;25.582;2024-03-02T05:17:55;6.10;;;2.70;;
84025;SDS011;74110;45.660;25.582;2024-03-02T05:20:25;5.30;;;2.80;;
84025;SDS011;74110;45.660;25.582;2024-03-02T05:22:53;7.90;;;2.50;;
84025;SDS011;74110;45.660;25.582;2024-03-02T05:25:22;6.00;;;2.90;;
84025;SDS011;74110;45.660;25.582;2024-03-02T05:27:49;6.20;;;2.80;;
84025;SDS011;74110;45.660;25.582;2024-03-02T05:30:17;7.90;;;3.00;;
84025;SDS011;74110;45.660;25.582;2024-03-02T05:32:46;7.40;;;3.20;;
84025;SDS011;74110;45.660;25.582;2024-03-02T05:35:14;8.70;;;3.30;;
84025;SDS011;74110;45.660;25.582;2024-03-02T05:37:42;6.90;;;2.60;;
84025;SDS011;74110;45.660;25.582;2024-03-02T05:40:11;7.40;;;2.80;;
84025;SDS011;74110;45.660;25.582;2024-03-02T05:42:40;7.40;;;2.20;;
84025;SDS011;74110;45.660;25.582;2024-03-02T05:45:09;6.50;;;2.30;;
84025;SDS011;74110;45.660;25.582;2024-03-02T05:47:38;4.80;;;2.30;;
84025;SDS011;74110;45.660;25.582;2024-03-02T05:50:06;4.50;;;2.40;;
84025;SDS011;74110;45.660;25.582;2024-03-02T05:52:34;5.40;;;2.30;;
84025;SDS011;74110;45.660;25.582;2024-03-02T05:55:03;5.90;;;2.20;;
84025;SDS011;74110;45.660;25.582;2024-03-02T05:57:32;5.30;;;2.60;;
84025;SDS011;74110;45.660;25.582;2024-03-02T06:00:26;5.80;;;2.80;;
84025;SDS011;74110;45.660;25.582;2024-03-02T06:02:55;5.40;;;2.10;;
84025;SDS011;74110;45.660;25.582;2024-03-02T06:05:25;5.30;;;2.20;;
84025;SDS011;74110;45.660;25.582;2024-03-02T06:07:54;5.60;;;2.60;;
84025;SDS011;74110;45.660;25.582;2024-03-02T06:10:21;8.40;;;2.70;;
84025;SDS011;74110;45.660;25.582;2024-03-02T06:12:51;4.90;;;2.60;;
84025;SDS011;74110;45.660;25.582;2024-03-02T06:15:18;7.00;;;2.40;;
84025;SDS011;74110;45.660;25.582;2024-03-02T06:20:14;6.10;;;2.80;;
84025;SDS011;74110;45.660;25.582;2024-03-02T06:22:44;6.30;;;2.90;;
84025;SDS011;74110;45.660;25.582;2024-03-02T06:27:41;5.50;;;2.80;;
84025;SDS011;74110;45.660;25.582;2024-03-02T06:30:10;7.10;;;2.50;;
84025;SDS011;74110;45.660;25.582;2024-03-02T06:32:39;5.40;;;2.50;;
84025;SDS011;74110;45.660;25.582;2024-03-02T06:35:07;5.70;;;2.60;;
84025;SDS011;74110;45.660;25.582;2024-03-02T06:37:37;10.10;;;3.00;;
84025;SDS011;74110;45.660;25.582;2024-03-02T06:40:07;4.80;;;2.70;;
84025;SDS011;74110;45.660;25.582;2024-03-02T06:42:36;8.60;;;2.70;;
84025;SDS011;74110;45.660;25.582;2024-03-02T06:45:05;7.30;;;2.70;;
84025;SDS011;74110;45.660;25.582;2024-03-02T06:47:35;4.80;;;2.80;;
84025;SDS011;74110;45.660;25.582;2024-03-02T06:50:04;7.50;;;3.30;;
84025;SDS011;74110;45.660;25.582;2024-03-02T06:52:32;7.90;;;3.00;;
84025;SDS011;74110;45.660;25.582;2024-03-02T06:55:02;6.90;;;3.10;;
84025;SDS011;74110;45.660;25.582;2024-03-02T06:57:32;7.30;;;3.30;;
84025;SDS011;74110;45.660;25.582;2024-03-02T07:00:00;9.10;;;2.70;;
84025;SDS011;74110;45.660;25.582;2024-03-02T07:02:29;5.60;;;3.10;;
84025;SDS011;74110;45.660;25.582;2024-03-02T07:04:56;10.20;;;3.00;;
84025;SDS011;74110;45.660;25.582;2024-03-02T07:07:24;7.20;;;2.70;;
84025;SDS011;74110;45.660;25.582;2024-03-02T07:09:52;9.60;;;3.50;;
84025;SDS011;74110;45.660;25.582;2024-03-02T07:12:20;7.80;;;3.40;;
84025;SDS011;74110;45.660;25.582;2024-03-02T07:14:48;7.70;;;3.00;;
84025;SDS011;74110;45.660;25.582;2024-03-02T07:17:45;6.40;;;3.00;;
84025;SDS011;74110;45.660;25.582;2024-03-02T07:20:14;7.10;;;2.90;;
84025;SDS011;74110;45.660;25.582;2024-03-02T07:22:43;7.30;;;3.40;;
84025;SDS011;74110;45.660;25.582;2024-03-02T07:25:11;5.80;;;2.90;;
84025;SDS011;74110;45.660;25.582;2024-03-02T07:27:43;8.60;;;3.60;;
84025;SDS011;74110;45.660;25.582;2024-03-02T07:30:15;8.30;;;3.00;;
84025;SDS011;74110;45.660;25.582;2024-03-02T07:32:45;8.40;;;3.20;;
84025;SDS011;74110;45.660;25.582;2024-03-02T07:35:14;6.40;;;3.50;;
84025;SDS011;74110;45.660;25.582;2024-03-02T07:37:42;5.90;;;2.90;;
84025;SDS011;74110;45.660;25.582;2024-03-02T07:40:10;11.80;;;3.60;;
84025;SDS011;74110;45.660;25.582;2024-03-02T07:42:41;5.30;;;3.10;;
84025;SDS011;74110;45.660;25.582;2024-03-02T07:45:09;8.40;;;3.30;;
84025;SDS011;74110;45.660;25.582;2024-03-02T07:47:36;9.80;;;3.30;;
84025;SDS011;74110;45.660;25.582;2024-03-02T07:50:04;6.50;;;3.20;;
84025;SDS011;74110;45.660;25.582;2024-03-02T07:52:34;11.00;;;6.10;;
84025;SDS011;74110;45.660;25.582;2024-03-02T07:55:02;9.40;;;4.80;;
84025;SDS011;74110;45.660;25.582;2024-03-02T07:57:30;7.80;;;4.20;;
84025;SDS011;74110;45.660;25.582;2024-03-02T07:59:59;11.70;;;7.20;;
84025;SDS011;74110;45.660;25.582;2024-03-02T08:02:27;9.00;;;4.00;;
84025;SDS011;74110;45.660;25.582;2024-03-02T08:04:54;4.50;;;2.90;;
84025;SDS011;74110;45.660;25.582;2024-03-02T08:07:23;8.10;;;3.50;;
84025;SDS011;74110;45.660;25.582;2024-03-02T08:09:54;12.20;;;4.50;;
84025;SDS011;74110;45.660;25.582;2024-03-02T08:12:22;11.70;;;3.30;;
84025;SDS011;74110;45.660;25.582;2024-03-02T08:14:53;8.00;;;2.90;;
84025;SDS011;74110;45.660;25.582;2024-03-02T08:17:21;7.40;;;3.00;;
84025;SDS011;74110;45.660;25.582;2024-03-02T08:19:50;16.90;;;5.70;;
84025;SDS011;74110;45.660;25.582;2024-03-02T08:22:19;5.50;;;2.70;;
84025;SDS011;74110;45.660;25.582;2024-03-02T08:24:47;8.30;;;3.10;;
84025;SDS011;74110;45.660;25.582;2024-03-02T08:27:16;6.80;;;3.30;;
84025;SDS011;74110;45.660;25.582;2024-03-02T08:29:44;9.50;;;3.10;;
84025;SDS011;74110;45.660;25.582;2024-03-02T08:32:12;7.70;;;2.60;;
84025;SDS011;74110;45.660;25.582;2024-03-02T08:37:08;5.70;;;3.40;;
84025;SDS011;74110;45.660;25.582;2024-03-02T08:39:36;11.10;;;3.90;;
84025;SDS011;74110;45.660;25.582;2024-03-02T08:42:03;14.10;;;5.80;;
84025;SDS011;74110;45.660;25.582;2024-03-02T08:44:31;9.40;;;4.60;;
84025;SDS011;74110;45.660;25.582;2024-03-02T08:47:00;5.70;;;2.20;;
84025;SDS011;74110;45.660;25.582;2024-03-02T08:49:28;5.30;;;1.90;;
84025;SDS011;74110;45.660;25.582;2024-03-02T08:51:56;4.50;;;2.00;;
84025;SDS011;74110;45.660;25.582;2024-03-02T08:54:23;5.00;;;3.00;;
84025;SDS011;74110;45.660;25.582;2024-03-02T08:56:51;5.90;;;2.00;;
84025;SDS011;74110;45.660;25.582;2024-03-02T08:59:20;4.80;;;2.30;;
84025;SDS011;74110;45.660;25.582;2024-03-02T09:01:48;4.20;;;2.20;;
84025;SDS011;74110;45.660;25.582;2024-03-02T09:04:17;5.40;;;1.90;;
84025;SDS011;74110;45.660;25.582;2024-03-02T09:06:44;4.70;;;2.10;;
84025;SDS011;74110;45.660;25.582;2024-03-02T09:09:13;7.20;;;2.10;;
84025;SDS011;74110;45.660;25.582;2024-03-02T09:11:42;6.00;;;2.70;;
84025;SDS011;74110;45.660;25.582;2024-03-02T09:14:14;3.80;;;1.70;;
84025;SDS011;74110;45.660;25.582;2024-03-02T09:16:43;6.70;;;2.10;;
84025;SDS011;74110;45.660;25.582;2024-03-02T09:19:11;4.40;;;1.90;;
84025;SDS011;74110;45.660;25.582;2024-03-02T09:21:41;5.80;;;2.30;;
84025;SDS011;74110;45.660;25.582;2024-03-02T09:24:12;4.80;;;2.10;;
84025;SDS011;74110;45.660;25.582;2024-03-02T09:26:43;5.60;;;2.30;;
84025;SDS011;74110;45.660;25.582;2024-03-02T09:29:13;4.10;;;2.10;;
84025;SDS011;74110;45.660;25.582;2024-03-02T09:31:40;5.40;;;1.80;;
84025;SDS011;74110;45.660;25.582;2024-03-02T09:34:09;4.70;;;2.60;;
84025;SDS011;74110;45.660;25.582;2024-03-02T09:36:38;6.40;;;2.30;;
84025;SDS011;74110;45.660;25.582;2024-03-02T09:39:07;3.90;;;1.80;;
84025;SDS011;74110;45.660;25.582;2024-03-02T09:41:37;3.60;;;1.70;;
84025;SDS011;74110;45.660;25.582;2024-03-02T09:44:07;9.00;;;2.40;;
84025;SDS011;74110;45.660;25.582;2024-03-02T09:46:37;5.50;;;2.90;;
84025;SDS011;74110;45.660;25.582;2024-03-02T09:49:05;8.40;;;2.10;;
84025;SDS011;74110;45.660;25.582;2024-03-02T09:51:33;3.90;;;1.90;;
84025;SDS011;74110;45.660;25.582;2024-03-02T09:54:03;5.00;;;2.10;;
84025;SDS011;74110;45.660;25.582;2024-03-02T09:56:47;3.60;;;2.00;;
84025;SDS011;74110;45.660;25.582;2024-03-02T09:59:15;5.70;;;2.00;;
84025;SDS011;74110;45.660;25.582;2024-03-02T10:01:55;10.70;;;2.20;;
84025;SDS011;74110;45.660;25.582;2024-03-02T10:04:48;3.50;;;1.50;;
84025;SDS011;74110;45.660;25.582;2024-03-02T10:07:17;3.60;;;2.20;;
84025;SDS011;74110;45.660;25.582;2024-03-02T10:09:49;2.90;;;1.70;;
84025;SDS011;74110;45.660;25.582;2024-03-02T10:12:20;5.10;;;1.90;;
84025;SDS011;74110;45.660;25.582;2024-03-02T10:14:49;3.90;;;2.00;;
84025;SDS011;74110;45.660;25.582;2024-03-02T10:17:30;3.70;;;2.00;;
84025;SDS011;74110;45.660;25.582;2024-03-02T10:19:58;2.70;;;1.70;;
84025;SDS011;74110;45.660;25.582;2024-03-02T10:22:28;4.00;;;1.80;;
84025;SDS011;74110;45.660;25.582;2024-03-02T10:24:57;3.50;;;2.10;;
84025;SDS011;74110;45.660;25.582;2024-03-02T10:27:27;5.10;;;2.00;;
84025;SDS011;74110;45.660;25.582;2024-03-02T10:29:57;2.80;;;1.50;;
84025;SDS011;74110;45.660;25.582;2024-03-02T10:32:25;6.00;;;2.40;;
84025;SDS011;74110;45.660;25.582;2024-03-02T10:34:55;6.90;;;3.00;;
84025;SDS011;74110;45.660;25.582;2024-03-02T10:37:23;5.00;;;2.40;;
84025;SDS011;74110;45.660;25.582;2024-03-02T10:39:51;4.80;;;2.40;;
84025;SDS011;74110;45.660;25.582;2024-03-02T10:42:21;5.20;;;2.40;;
84025;SDS011;74110;45.660;25.582;2024-03-02T10:44:51;4.30;;;2.50;;
84025;SDS011;74110;45.660;25.582;2024-03-02T10:47:24;4.90;;;2.50;;
84025;SDS011;74110;45.660;25.582;2024-03-02T10:49:54;5.10;;;2.60;;
84025;SDS011;74110;45.660;25.582;2024-03-02T10:52:26;5.70;;;2.10;;
84025;SDS011;74110;45.660;25.582;2024-03-02T10:54:55;5.50;;;2.50;;
84025;SDS011;74110;45.660;25.582;2024-03-02T10:57:24;5.80;;;2.80;;
84025;SDS011;74110;45.660;25.582;2024-03-02T11:00:02;5.80;;;3.10;;
84025;SDS011;74110;45.660;25.582;2024-03-02T11:02:33;6.30;;;3.90;;
84025;SDS011;74110;45.660;25.582;2024-03-02T11:05:04;6.50;;;2.80;;
84025;SDS011;74110;45.660;25.582;2024-03-02T11:07:36;6.80;;;3.20;;
84025;SDS011;74110;45.660;25.582;2024-03-02T11:10:06;6.20;;;4.10;;
84025;SDS011;74110;45.660;25.582;2024-03-02T11:15:40;9.10;;;3.00;;
84025;SDS011;74110;45.660;25.582;2024-03-02T11:18:11;4.80;;;2.70;;
84025;SDS011;74110;45.660;25.582;2024-03-02T11:20:41;5.50;;;2.70;;
84025;SDS011;74110;45.660;25.582;2024-03-02T11:23:10;6.10;;;2.70;;
84025;SDS011;74110;45.660;25.582;2024-03-02T11:25:39;5.40;;;3.40;;
84025;SDS011;74110;45.660;25.582;2024-03-02T11:28:07;4.90;;;2.60;;
84025;SDS011;74110;45.660;25.582;2024-03-02T11:33:14;6.60;;;3.40;;
84025;SDS011;74110;45.660;25.582;2024-03-02T11:35:51;11.70;;;3.50;;
84025;SDS011;74110;45.660;25.582;2024-03-02T11:38:20;8.40;;;3.70;;
84025;SDS011;74110;45.660;25.582;2024-03-02T11:40:49;12.50;;;3.90;;
84025;SDS011;74110;45.660;25.582;2024-03-02T11:43:19;6.00;;;3.90;;
84025;SDS011;74110;45.660;25.582;2024-03-02T11:45:46;5.90;;;3.60;;
84025;SDS011;74110;45.660;25.582;2024-03-02T11:48:15;6.60;;;3.30;;
84025;SDS011;74110;45.660;25.582;2024-03-02T11:50:47;9.00;;;4.60;;
84025;SDS011;74110;45.660;25.582;2024-03-02T11:53:19;7.50;;;3.90;;
84025;SDS011;74110;45.660;25.582;2024-03-02T11:55:48;6.90;;;3.90;;
84025;SDS011;74110;45.660;25.582;2024-03-02T11:58:18;8.30;;;3.60;;
84025;SDS011;74110;45.660;25.582;2024-03-02T12:00:51;6.40;;;3.60;;
84025;SDS011;74110;45.660;25.582;2024-03-02T12:03:23;8.50;;;3.90;;
84025;SDS011;74110;45.660;25.582;2024-03-02T12:05:53;7.40;;;3.30;;
84025;SDS011;74110;45.660;25.582;2024-03-02T12:08:22;9.50;;;3.60;;
84025;SDS011;74110;45.660;25.582;2024-03-02T12:10:59;7.10;;;3.30;;
84025;SDS011;74110;45.660;25.582;2024-03-02T12:13:29;6.90;;;3.10;;
84025;SDS011;74110;45.660;25.582;2024-03-02T12:15:59;7.10;;;3.80;;
84025;SDS011;74110;45.660;25.582;2024-03-02T12:18:28;6.80;;;3.30;;
84025;SDS011;74110;45.660;25.582;2024-03-02T12:20:56;7.80;;;3.20;;
84025;SDS011;74110;45.660;25.582;2024-03-02T12:23:26;7.70;;;3.20;;
84025;SDS011;74110;45.660;25.582;2024-03-02T12:25:54;7.20;;;3.70;;
84025;SDS011;74110;45.660;25.582;2024-03-02T12:28:24;9.20;;;3.90;;
84025;SDS011;74110;45.660;25.582;2024-03-02T12:30:53;6.30;;;3.20;;
84025;SDS011;74110;45.660;25.582;2024-03-02T12:33:22;5.10;;;3.30;;
84025;SDS011;74110;45.660;25.582;2024-03-02T12:35:50;7.80;;;4.40;;
84025;SDS011;74110;45.660;25.582;2024-03-02T12:38:19;7.10;;;3.70;;
84025;SDS011;74110;45.660;25.582;2024-03-02T12:40:48;8.80;;;4.80;;
84025;SDS011;74110;45.660;25.582;2024-03-02T12:43:17;13.60;;;5.70;;
84025;SDS011;74110;45.660;25.582;2024-03-02T12:45:48;8.40;;;4.20;;
84025;SDS011;74110;45.660;25.582;2024-03-02T12:48:17;9.10;;;3.90;;
84025;SDS011;74110;45.660;25.582;2024-03-02T12:50:45;7.30;;;3.40;;
84025;SDS011;74110;45.660;25.582;2024-03-02T12:53:16;13.60;;;5.10;;
84025;SDS011;74110;45.660;25.582;2024-03-02T12:55:44;10.30;;;3.50;;
84025;SDS011;74110;45.660;25.582;2024-03-02T12:58:21;7.80;;;3.80;;
84025;SDS011;74110;45.660;25.582;2024-03-02T13:00:51;7.00;;;3.80;;
84025;SDS011;74110;45.660;25.582;2024-03-02T13:03:37;10.20;;;4.00;;
84025;SDS011;74110;45.660;25.582;2024-03-02T13:06:05;10.60;;;4.80;;
84025;SDS011;74110;45.660;25.582;2024-03-02T13:08:34;13.90;;;5.80;;
84025;SDS011;74110;45.660;25.582;2024-03-02T13:11:02;10.30;;;4.60;;
84025;SDS011;74110;45.660;25.582;2024-03-02T13:13:31;8.40;;;3.60;;
84025;SDS011;74110;45.660;25.582;2024-03-02T13:15:58;7.80;;;4.20;;
84025;SDS011;74110;45.660;25.582;2024-03-02T13:18:26;11.10;;;4.90;;
84025;SDS011;74110;45.660;25.582;2024-03-02T13:20:56;11.00;;;4.40;;
84025;SDS011;74110;45.660;25.582;2024-03-02T13:23:25;10.90;;;4.70;;
84025;SDS011;74110;45.660;25.582;2024-03-02T13:25:55;13.90;;;4.70;;
84025;SDS011;74110;45.660;25.582;2024-03-02T13:28:27;9.20;;;4.60;;
84025;SDS011;74110;45.660;25.582;2024-03-02T13:31:06;8.30;;;4.40;;
84025;SDS011;74110;45.660;25.582;2024-03-02T13:33:34;9.10;;;4.20;;
84025;SDS011;74110;45.660;25.582;2024-03-02T13:36:02;14.80;;;4.90;;
84025;SDS011;74110;45.660;25.582;2024-03-02T13:38:30;10.20;;;5.20;;
84025;SDS011;74110;45.660;25.582;2024-03-02T13:40:58;10.60;;;5.10;;
84025;SDS011;74110;45.660;25.582;2024-03-02T13:43:29;8.00;;;4.50;;
84025;SDS011;74110;45.660;25.582;2024-03-02T13:46:03;9.90;;;4.70;;
84025;SDS011;74110;45.660;25.582;2024-03-02T13:48:32;7.70;;;4.60;;
84025;SDS011;74110;45.660;25.582;2024-03-02T13:51:01;10.90;;;4.90;;
84025;SDS011;74110;45.660;25.582;2024-03-02T13:53:32;9.80;;;4.60;;
84025;SDS011;74110;45.660;25.582;2024-03-02T13:56:01;10.90;;;4.40;;
84025;SDS011;74110;45.660;25.582;2024-03-02T13:58:30;13.60;;;5.30;;
84025;SDS011;74110;45.660;25.582;2024-03-02T14:00:59;9.70;;;5.10;;
84025;SDS011;74110;45.660;25.582;2024-03-02T14:03:29;8.90;;;4.80;;
84025;SDS011;74110;45.660;25.582;2024-03-02T14:05:59;8.30;;;4.90;;
84025;SDS011;74110;45.660;25.582;2024-03-02T14:08:27;13.00;;;4.80;;
84025;SDS011;74110;45.660;25.582;2024-03-02T14:10:56;7.90;;;4.70;;
84025;SDS011;74110;45.660;25.582;2024-03-02T14:13:27;12.60;;;4.60;;
84025;SDS011;74110;45.660;25.582;2024-03-02T14:15:56;8.60;;;4.50;;
84025;SDS011;74110;45.660;25.582;2024-03-02T14:18:28;13.00;;;5.20;;
84025;SDS011;74110;45.660;25.582;2024-03-02T14:20:56;10.20;;;4.90;;
84025;SDS011;74110;45.660;25.582;2024-03-02T14:25:53;11.30;;;4.40;;
84025;SDS011;74110;45.660;25.582;2024-03-02T14:28:20;11.70;;;5.90;;
84025;SDS011;74110;45.660;25.582;2024-03-02T14:31:08;7.80;;;4.60;;
84025;SDS011;74110;45.660;25.582;2024-03-02T14:33:37;7.20;;;4.40;;
84025;SDS011;74110;45.660;25.582;2024-03-02T14:36:04;9.30;;;5.00;;
84025;SDS011;74110;45.660;25.582;2024-03-02T14:38:34;12.10;;;5.50;;
84025;SDS011;74110;45.660;25.582;2024-03-02T14:41:01;12.40;;;5.40;;
84025;SDS011;74110;45.660;25.582;2024-03-02T14:43:30;13.80;;;5.50;;
84025;SDS011;74110;45.660;25.582;2024-03-02T14:45:59;11.90;;;5.40;;
84025;SDS011;74110;45.660;25.582;2024-03-02T14:48:27;10.90;;;5.30;;
84025;SDS011;74110;45.660;25.582;2024-03-02T14:50:56;12.70;;;5.80;;
84025;SDS011;74110;45.660;25.582;2024-03-02T14:53:25;14.70;;;6.00;;
84025;SDS011;74110;45.660;25.582;2024-03-02T14:55:53;13.00;;;5.80;;
84025;SDS011;74110;45.660;25.582;2024-03-02T14:58:23;12.60;;;5.70;;
84025;SDS011;74110;45.660;25.582;2024-03-02T15:00:54;10.50;;;6.10;;
84025;SDS011;74110;45.660;25.582;2024-03-02T15:03:22;10.70;;;5.80;;
84025;SDS011;74110;45.660;25.582;2024-03-02T15:05:52;11.90;;;6.00;;
84025;SDS011;74110;45.660;25.582;2024-03-02T15:08:22;10.90;;;5.60;;
84025;SDS011;74110;45.660;25.582;2024-03-02T15:10:50;8.40;;;5.30;;
84025;SDS011;74110;45.660;25.582;2024-03-02T15:13:22;10.50;;;5.70;;
84025;SDS011;74110;45.660;25.582;2024-03-02T15:15:52;11.90;;;6.10;;
84025;SDS011;74110;45.660;25.582;2024-03-02T15:18:21;10.80;;;6.60;;
84025;SDS011;74110;45.660;25.582;2024-03-02T15:20:49;11.30;;;5.50;;
84025;SDS011;74110;45.660;25.582;2024-03-02T15:23:18;12.20;;;5.70;;